Overview Statistics Trail Chart Weather Telemetry Raw packets
 

This is the latest recevied weather packets stored in our database for station/object DK6GC-10. If no packets are shown the sender has not sent any weather packets the latest 10 day(s).

<< 21 22 23 24 25 26 27 >>
Time Temp. Humidity Pressure Rain* Wind** Luminosity Snow
1788193820 18.33° C 94% 1019.9 hPa - - - -
1788192919 18.33° C 97% 1020.2 hPa - - - -
1788192019 18.33° C 95% 1020.5 hPa - - - -
1788191137 19.44° C 82% 1019.4 hPa - - - -
1788190219 19.44° C 80% 1019.1 hPa - - - -
1788189318 19.44° C 79% 1019.1 hPa - - - -
1788188418 22.22° C 58% 1019.1 hPa - - - -
1788187518 22.22° C 60% 1018.8 hPa - - - -
1788186618 23.33° C 55% 1018.2 hPa - - - -
1788185718 23.33° C 57% 1018.2 hPa - - - -
1788184817 23.33° C 55% 1018.3 hPa - - - -
1788183917 23.33° C 57% 1018.5 hPa - - - -
1788183017 22.78° C 58% 1018.9 hPa - - - -
1788182117 22.22° C 60% 1019 hPa - - - -
1788181217 22.78° C 55% 1019.2 hPa - - - -
1788180317 23.33° C 55% 1018.8 hPa - - - -
1788179416 25° C 48% 1018.6 hPa - - - -
1788178516 25° C 47% 1018.5 hPa - - - -
1788177621 25° C 46% 1018.7 hPa - - - -
1788176721 24.44° C 48% 1018.6 hPa - - - -
1788175821 25° C 47% 1018.8 hPa - - - -
1788174921 23.89° C 52% 1018.9 hPa - - - -
1788174020 24.44° C 53% 1018.8 hPa - - - -
1788173119 23.89° C 54% 1018.9 hPa - - - -
1788172219 22.78° C 56% 1018.7 hPa - - - -

* Rain since midnight (hover to see other rain measurements)
** Current wind speed in m/s (hover to see current wind gust speed)